createdAt,value
2023-01-21T00:00:07.332Z,0.4
2023-01-21T00:01:15.116Z,0.4
2023-01-21T00:02:22.640Z,0.5
2023-01-21T00:03:29.866Z,0.5
2023-01-21T00:04:36.863Z,0.4
2023-01-21T00:05:44.009Z,0.3
2023-01-21T00:06:51.022Z,0.5
2023-01-21T00:07:58.119Z,0.4
2023-01-21T00:09:05.322Z,0.4
2023-01-21T00:10:12.558Z,0.5
2023-01-21T00:11:19.631Z,0.3
2023-01-21T00:12:26.711Z,0.1
2023-01-21T00:13:33.819Z,0.2
2023-01-21T00:14:40.952Z,0.3
2023-01-21T00:15:48.099Z,0.4
2023-01-21T00:16:55.357Z,0.3
2023-01-21T00:18:02.805Z,0.3
2023-01-21T00:19:10.467Z,0.4
2023-01-21T00:20:17.943Z,0.5
2023-01-21T00:21:24.795Z,0.5
2023-01-21T00:22:31.875Z,0.4
2023-01-21T00:23:39.138Z,0.5
2023-01-21T00:24:46.135Z,0.3
2023-01-21T00:25:53.256Z,0.4
2023-01-21T00:27:05.479Z,0.4
2023-01-21T00:28:12.527Z,0.3
2023-01-21T00:29:19.808Z,0.2
2023-01-21T00:30:26.903Z,0.3
2023-01-21T00:31:34.140Z,0.3
2023-01-21T00:32:41.221Z,0.4
2023-01-21T00:33:48.170Z,0.3
2023-01-21T00:34:55.320Z,0.5
2023-01-21T00:36:02.475Z,0.5
2023-01-21T00:37:09.660Z,0.5
2023-01-21T00:38:16.807Z,0.5
2023-01-21T00:39:23.909Z,0.6
2023-01-21T00:40:30.959Z,0.5
2023-01-21T00:41:38.092Z,0.5
2023-01-21T00:42:45.242Z,0.5
2023-01-21T00:43:52.281Z,0.5
2023-01-21T00:44:59.523Z,0.6
2023-01-21T00:46:07.271Z,0.5
2023-01-21T00:47:14.155Z,0.4
2023-01-21T00:48:21.267Z,0.4
2023-01-21T00:49:28.477Z,0.5
2023-01-21T00:50:35.608Z,0.4
2023-01-21T00:51:42.739Z,0.4
2023-01-21T00:52:49.715Z,0.4
2023-01-21T00:53:56.839Z,0.5
2023-01-21T00:55:04.008Z,0.6
2023-01-21T00:56:11.233Z,0.6
2023-01-21T00:57:18.400Z,0.4
2023-01-21T00:58:25.471Z,0.4
2023-01-21T00:59:32.591Z,0.5
2023-01-21T01:00:39.599Z,0.6
2023-01-21T01:01:46.833Z,0.6
2023-01-21T01:02:53.914Z,0.3
2023-01-21T01:04:01.085Z,0.5
2023-01-21T01:05:08.091Z,0.5
2023-01-21T01:06:15.147Z,0.3
2023-01-21T01:07:22.468Z,0.3
2023-01-21T01:08:29.511Z,0.5
2023-01-21T01:09:36.602Z,0.6
2023-01-21T01:10:43.755Z,0.4
2023-01-21T01:11:50.847Z,0.4
2023-01-21T01:12:57.892Z,0.2
2023-01-21T01:14:05.095Z,0
2023-01-21T01:15:12.207Z,0.2
2023-01-21T01:16:19.365Z,0.4
2023-01-21T01:17:26.538Z,0.4
2023-01-21T01:18:33.617Z,0.5
2023-01-21T01:19:40.859Z,0.5
2023-01-21T01:20:48.307Z,0.4
2023-01-21T01:21:55.437Z,0.6
2023-01-21T01:23:02.640Z,0.3
2023-01-21T01:24:09.758Z,0.3
2023-01-21T01:25:16.827Z,0.5
2023-01-21T01:26:24.009Z,0.3
2023-01-21T01:27:31.167Z,0.4
2023-01-21T01:28:38.375Z,0.4
2023-01-21T01:29:45.505Z,0.5
2023-01-21T01:30:52.705Z,0.5
2023-01-21T01:31:59.570Z,0.5
2023-01-21T01:33:06.626Z,0.6
2023-01-21T01:34:13.820Z,0.5
2023-01-21T01:35:21.023Z,0.5
2023-01-21T01:36:28.155Z,0.6
2023-01-21T01:37:35.367Z,0.5
2023-01-21T01:38:42.482Z,0.4
2023-01-21T01:39:49.500Z,0.5
2023-01-21T01:40:56.607Z,0.6
2023-01-21T01:42:03.895Z,0.6
2023-01-21T01:43:11.541Z,0.5
2023-01-21T01:44:21.116Z,0.3
2023-01-21T01:45:38.410Z,0.5
2023-01-21T01:46:45.557Z,0.5
2023-01-21T01:47:52.668Z,0.5
2023-01-21T01:48:59.703Z,0.5
2023-01-21T01:50:09.538Z,0.4
2023-01-21T01:51:16.643Z,0.3
2023-01-21T01:52:23.674Z,0.5
2023-01-21T01:53:30.938Z,0.6
2023-01-21T01:54:37.932Z,0.6
2023-01-21T01:55:45.203Z,0.5
2023-01-21T01:56:52.231Z,0.5
2023-01-21T01:57:59.411Z,0.7
2023-01-21T01:59:06.410Z,0.6
2023-01-21T02:00:13.574Z,0.6
2023-01-21T02:01:20.807Z,0.7
2023-01-21T02:02:27.942Z,0.7
2023-01-21T02:03:35.090Z,0.7
2023-01-21T02:04:47.240Z,0.7
2023-01-21T02:05:54.198Z,0.8
2023-01-21T02:07:01.358Z,0.7
2023-01-21T02:08:08.415Z,0.7
2023-01-21T02:09:15.561Z,0.7
2023-01-21T02:10:22.759Z,0.6
2023-01-21T02:11:29.955Z,0.5
2023-01-21T02:12:37.045Z,0.7
2023-01-21T02:13:44.135Z,0.6
2023-01-21T02:14:54.195Z,0.6
2023-01-21T02:16:01.454Z,0.7
2023-01-21T02:17:16.235Z,0.8
2023-01-21T02:18:28.400Z,0.7
2023-01-21T02:19:45.704Z,0.6
2023-01-21T02:21:02.942Z,0.7
2023-01-21T02:22:17.800Z,0.7
2023-01-21T02:23:24.915Z,0.6
2023-01-21T02:24:40.165Z,0.5
2023-01-21T02:25:57.864Z,0.4
2023-01-21T02:27:10.140Z,0.7
2023-01-21T02:28:27.418Z,0.7
2023-01-21T02:29:34.752Z,0.8
2023-01-21T02:30:49.821Z,0.6
2023-01-21T02:32:07.180Z,0.7
2023-01-21T02:33:22.401Z,0.8
2023-01-21T02:34:39.875Z,0.8
2023-01-21T02:35:52.719Z,0.7
2023-01-21T02:37:08.079Z,0.7
2023-01-21T02:38:18.297Z,0.8
2023-01-21T02:39:25.458Z,0.7
2023-01-21T02:40:40.686Z,0.9
2023-01-21T02:41:57.843Z,0.8
2023-01-21T02:43:13.222Z,0.6
2023-01-21T02:44:25.454Z,0.7
2023-01-21T02:45:37.694Z,0.6
2023-01-21T02:46:44.740Z,0.5
2023-01-21T02:47:54.473Z,0.8
2023-01-21T02:49:09.628Z,0.8
2023-01-21T02:50:21.930Z,0.9
2023-01-21T02:51:31.995Z,0.8
2023-01-21T02:52:39.185Z,0.4
2023-01-21T02:53:46.351Z,0.7
2023-01-21T02:54:53.418Z,0.6
2023-01-21T02:56:01.697Z,0.5
2023-01-21T02:57:08.819Z,0.5
2023-01-21T02:58:15.751Z,0.7
2023-01-21T02:59:23.007Z,0.7
2023-01-21T03:00:30.159Z,0.6
2023-01-21T03:01:40.355Z,0.7
2023-01-21T03:02:52.874Z,0.7
2023-01-21T03:04:10.272Z,0.5
2023-01-21T03:05:22.479Z,0.6
2023-01-21T03:06:35.165Z,0.6
2023-01-21T03:07:48.346Z,0.6
2023-01-21T03:09:06.065Z,0.5
2023-01-21T03:10:20.924Z,0.4
2023-01-21T03:11:31.139Z,0.8
2023-01-21T03:12:38.239Z,0.9
2023-01-21T03:13:53.402Z,0.6
2023-01-21T03:15:13.770Z,0.7
2023-01-21T03:16:26.079Z,0.8
2023-01-21T03:17:38.250Z,0.8
2023-01-21T03:18:45.419Z,0.8
2023-01-21T03:19:52.966Z,0.7
2023-01-21T03:21:05.158Z,0.6
2023-01-21T03:22:12.219Z,0.6
2023-01-21T03:23:19.358Z,0.5
2023-01-21T03:24:34.688Z,0.6
2023-01-21T03:25:41.790Z,0.7
2023-01-21T03:26:48.779Z,0.8
2023-01-21T03:27:55.895Z,0.6
2023-01-21T03:29:03.019Z,0.7
2023-01-21T03:30:10.135Z,0.7
2023-01-21T03:31:17.322Z,0.6
2023-01-21T03:32:24.417Z,0.6
2023-01-21T03:33:31.485Z,0.7
2023-01-21T03:34:38.647Z,0.7
2023-01-21T03:35:45.785Z,0.5
2023-01-21T03:36:53.224Z,0.3
2023-01-21T03:38:00.530Z,0.5
2023-01-21T03:39:07.515Z,0.6
2023-01-21T03:40:14.963Z,0.6
2023-01-21T03:41:26.911Z,0.8
2023-01-21T03:42:34.459Z,0.9
2023-01-21T03:43:41.634Z,0.9
2023-01-21T03:44:49.195Z,1.1
2023-01-21T03:45:56.327Z,0.9
2023-01-21T03:47:03.586Z,0.9
2023-01-21T03:48:18.744Z,0.8
2023-01-21T03:49:36.047Z,0.9
2023-01-21T03:50:51.179Z,0.8
2023-01-21T03:51:58.328Z,0.6
2023-01-21T03:53:05.540Z,0.6
2023-01-21T03:54:12.495Z,0.6
2023-01-21T03:55:19.673Z,0.6
2023-01-21T03:56:26.802Z,0.6
2023-01-21T03:57:33.993Z,0.6
2023-01-21T03:58:41.094Z,0.3
2023-01-21T03:59:48.016Z,0.5
2023-01-21T04:00:55.226Z,0.4
2023-01-21T04:02:02.351Z,0.6
2023-01-21T04:03:09.460Z,0.8
2023-01-21T04:04:16.590Z,0.6
2023-01-21T04:05:23.891Z,0.5
2023-01-21T04:06:31.023Z,0.5
2023-01-21T04:07:38.471Z,0.6
2023-01-21T04:08:45.631Z,0.6
2023-01-21T04:10:05.351Z,0.7
2023-01-21T04:11:18.196Z,0.5
2023-01-21T04:12:25.357Z,0.6
2023-01-21T04:13:32.440Z,0.5
2023-01-21T04:14:39.578Z,0.6
2023-01-21T04:15:46.657Z,0.8
2023-01-21T04:16:53.598Z,0.7
2023-01-21T04:18:00.805Z,0.6
2023-01-21T04:19:07.947Z,0.8
2023-01-21T04:20:15.416Z,0.8
2023-01-21T04:21:22.275Z,0.6
2023-01-21T04:22:29.367Z,0.4
2023-01-21T04:23:36.466Z,0.3
2023-01-21T04:24:43.532Z,0.5
2023-01-21T04:25:50.757Z,0.5
2023-01-21T04:26:58.215Z,0.6
2023-01-21T04:28:05.326Z,0.6
2023-01-21T04:29:12.486Z,0.4
2023-01-21T04:30:19.619Z,0.4
2023-01-21T04:31:26.751Z,0.4
2023-01-21T04:32:33.958Z,0.5
2023-01-21T04:33:40.914Z,0.6
2023-01-21T04:34:47.978Z,0.6
2023-01-21T04:35:55.173Z,0.6
2023-01-21T04:37:05.335Z,0.5
2023-01-21T04:38:12.439Z,0.5
2023-01-21T04:39:19.626Z,0.5
2023-01-21T04:40:26.780Z,0.5
2023-01-21T04:41:33.903Z,0.6
2023-01-21T04:42:41.065Z,0.4
2023-01-21T04:43:47.990Z,0.4
2023-01-21T04:44:55.052Z,0.5
2023-01-21T04:46:02.458Z,0.4
2023-01-21T04:47:09.400Z,0.6
2023-01-21T04:48:16.459Z,0.3
2023-01-21T04:49:23.559Z,0.3
2023-01-21T04:50:30.668Z,0.3
2023-01-21T04:51:37.871Z,0.4
2023-01-21T04:52:45.094Z,0.5
2023-01-21T04:53:52.579Z,0.7
2023-01-21T04:54:59.654Z,0.7
2023-01-21T04:56:06.767Z,0.7
2023-01-21T04:57:13.901Z,0.4
2023-01-21T04:58:21.072Z,0.6
2023-01-21T04:59:28.335Z,0.6
2023-01-21T05:00:35.355Z,0.7
2023-01-21T05:01:42.351Z,0.7
2023-01-21T05:02:49.502Z,0.6
2023-01-21T05:03:56.538Z,0.5
2023-01-21T05:05:03.761Z,0.5
2023-01-21T05:06:11.358Z,0.6
2023-01-21T05:07:20.799Z,0.5
2023-01-21T05:08:25.586Z,0.4
2023-01-21T05:09:32.745Z,0.3
2023-01-21T05:10:39.850Z,0.4
2023-01-21T05:11:46.986Z,0.4
2023-01-21T05:12:54.090Z,0.5
2023-01-21T05:14:01.104Z,0.3
2023-01-21T05:15:08.269Z,0.2
2023-01-21T05:16:15.371Z,0.5
2023-01-21T05:17:22.471Z,0.5
2023-01-21T05:18:29.718Z,0.6
2023-01-21T05:19:36.936Z,0.6
2023-01-21T05:20:43.883Z,0.6
2023-01-21T05:21:51.328Z,0.6
2023-01-21T05:22:58.551Z,0.6
2023-01-21T05:24:05.578Z,0.6
2023-01-21T05:25:12.943Z,0.5
2023-01-21T05:26:20.456Z,0.5
2023-01-21T05:27:27.606Z,0.4
2023-01-21T05:28:34.674Z,0.4
2023-01-21T05:29:41.850Z,0.6
2023-01-21T05:30:48.828Z,0.6
2023-01-21T05:31:56.023Z,0.4
2023-01-21T05:33:03.016Z,0.1
2023-01-21T05:34:10.155Z,0.2
2023-01-21T05:35:17.294Z,0.4
2023-01-21T05:36:24.395Z,0.3
2023-01-21T05:37:31.697Z,0.2
2023-01-21T05:38:38.792Z,0.2
2023-01-21T05:39:45.778Z,0.4
2023-01-21T05:40:52.852Z,0.2
2023-01-21T05:42:03.026Z,0.2
2023-01-21T05:43:10.198Z,0.2
2023-01-21T05:44:17.788Z,0
2023-01-21T05:45:24.412Z,0.2
2023-01-21T05:46:31.629Z,0.1
2023-01-21T05:47:38.720Z,0.2
2023-01-21T05:48:45.800Z,0.3
2023-01-21T05:49:53.233Z,0.3
2023-01-21T05:51:00.446Z,0.3
2023-01-21T05:52:07.605Z,0.1
2023-01-21T05:53:14.626Z,-0.1
2023-01-21T05:54:21.776Z,0
2023-01-21T05:55:28.923Z,0.2
2023-01-21T05:56:36.205Z,0.4
2023-01-21T05:57:43.222Z,0.2
2023-01-21T05:58:50.261Z,0.2
2023-01-21T05:59:57.334Z,0.3
2023-01-21T06:01:04.467Z,0.3
2023-01-21T06:02:11.736Z,0.3
2023-01-21T06:03:19.285Z,0.3
2023-01-21T06:04:26.542Z,0.4
2023-01-21T06:05:33.486Z,0.4
2023-01-21T06:06:40.609Z,0.5
2023-01-21T06:07:47.640Z,0.4
2023-01-21T06:08:54.787Z,0.3
2023-01-21T06:10:01.937Z,0.3
2023-01-21T06:11:09.585Z,0.4
2023-01-21T06:12:16.742Z,0.4
2023-01-21T06:13:23.727Z,0.6
2023-01-21T06:14:30.833Z,0.6
2023-01-21T06:15:38.064Z,0.5
2023-01-21T06:16:45.210Z,0.3
2023-01-21T06:17:52.931Z,0.4
2023-01-21T06:18:59.846Z,0.4
2023-01-21T06:20:06.945Z,0.5
2023-01-21T06:21:14.666Z,0.4
2023-01-21T06:22:21.797Z,0.4
2023-01-21T06:23:28.951Z,0.4
2023-01-21T06:24:36.103Z,0.3
2023-01-21T06:25:43.217Z,0.2
2023-01-21T06:26:50.209Z,0.4
2023-01-21T06:27:57.375Z,0.4
2023-01-21T06:29:04.420Z,0.2
2023-01-21T06:30:11.698Z,0
2023-01-21T06:31:19.524Z,0.1
2023-01-21T06:32:26.917Z,0
2023-01-21T06:33:34.023Z,0.1
2023-01-21T06:34:41.164Z,0.2
2023-01-21T06:35:48.727Z,0
2023-01-21T06:36:55.795Z,0.2
2023-01-21T06:38:02.901Z,0
2023-01-21T06:39:10.064Z,0.3
2023-01-21T06:40:17.683Z,0
2023-01-21T06:41:24.344Z,-0.2
2023-01-21T06:42:31.461Z,0.1
2023-01-21T06:43:38.602Z,0
2023-01-21T06:44:45.781Z,-0.1
2023-01-21T06:45:52.918Z,0
2023-01-21T06:47:01.108Z,-0.1
2023-01-21T06:48:07.031Z,0.2
2023-01-21T06:49:14.134Z,0
2023-01-21T06:50:21.290Z,0
2023-01-21T06:51:28.369Z,0.2
2023-01-21T06:52:35.493Z,0.1
2023-01-21T06:53:42.714Z,0.2
2023-01-21T06:54:49.710Z,0
2023-01-21T06:55:56.880Z,0.2
2023-01-21T06:57:04.066Z,0.1
2023-01-21T06:58:11.148Z,-0.1
2023-01-21T06:59:18.258Z,0.1
2023-01-21T07:00:25.340Z,0.3
2023-01-21T07:01:32.792Z,0
2023-01-21T07:02:39.621Z,-0.1
2023-01-21T07:03:46.715Z,0.2
2023-01-21T07:04:54.286Z,0.3
2023-01-21T07:06:01.362Z,0
2023-01-21T07:07:08.984Z,0
2023-01-21T07:08:16.104Z,0
2023-01-21T07:09:23.203Z,0.1
2023-01-21T07:10:30.301Z,0.1
2023-01-21T07:11:37.457Z,0
2023-01-21T07:12:44.573Z,0.1
2023-01-21T07:13:51.611Z,0.1
2023-01-21T07:14:58.819Z,0
2023-01-21T07:16:07.019Z,0.1
2023-01-21T07:17:13.526Z,0.1
2023-01-21T07:18:21.106Z,0
2023-01-21T07:19:28.293Z,0
2023-01-21T07:20:35.333Z,0
2023-01-21T07:21:42.589Z,0.1
2023-01-21T07:22:50.104Z,0.1
2023-01-21T07:23:57.171Z,0
2023-01-21T07:25:04.284Z,0
2023-01-21T07:26:11.937Z,0.2
2023-01-21T07:27:19.065Z,0.4
2023-01-21T07:28:26.329Z,0.3
2023-01-21T07:29:33.397Z,0.1
2023-01-21T07:30:40.573Z,0.1
2023-01-21T07:31:47.504Z,0.1
2023-01-21T07:32:54.616Z,0.1
2023-01-21T07:34:01.767Z,0.2
2023-01-21T07:35:08.941Z,0.1
2023-01-21T07:36:15.955Z,0.3
2023-01-21T07:37:23.153Z,0.5
2023-01-21T07:38:30.225Z,0.6
2023-01-21T07:39:37.354Z,0.6
2023-01-21T07:40:44.497Z,0.6
2023-01-21T07:41:52.050Z,0.3
2023-01-21T07:42:59.254Z,0.3
2023-01-21T07:44:06.361Z,0.5
2023-01-21T07:45:13.446Z,0.4
2023-01-21T07:46:20.580Z,0.6
2023-01-21T07:47:27.753Z,0.6
2023-01-21T07:48:34.966Z,0.3
2023-01-21T07:49:42.037Z,0.5
2023-01-21T07:50:49.506Z,0.7
2023-01-21T07:51:56.663Z,0.8
2023-01-21T07:53:03.795Z,0.5
2023-01-21T07:54:11.082Z,0.7
2023-01-21T07:55:18.406Z,0.8
2023-01-21T07:56:25.200Z,0.8
2023-01-21T07:57:32.369Z,0.9
2023-01-21T07:58:39.481Z,0.9
2023-01-21T07:59:46.797Z,0.8
2023-01-21T08:00:54.143Z,0.9
2023-01-21T08:02:01.440Z,0.7
2023-01-21T08:03:08.437Z,0.5
2023-01-21T08:04:15.507Z,0.4
2023-01-21T08:05:22.753Z,0.5
2023-01-21T08:06:30.702Z,0.4
2023-01-21T08:07:38.093Z,0.5
2023-01-21T08:08:45.165Z,0.7
2023-01-21T08:09:52.629Z,0.7
2023-01-21T08:10:59.828Z,0.7
2023-01-21T08:12:08.176Z,0.8
2023-01-21T08:13:15.553Z,0.9
2023-01-21T08:14:24.533Z,0.6
2023-01-21T08:15:33.384Z,0.7
2023-01-21T08:16:41.604Z,0.7
2023-01-21T08:17:53.371Z,0.7
2023-01-21T08:19:00.369Z,0.5
2023-01-21T08:20:07.634Z,0.4
2023-01-21T08:21:17.831Z,0.5
2023-01-21T08:22:25.983Z,0.6
2023-01-21T08:23:35.405Z,0.6
2023-01-21T08:24:42.588Z,0.6
2023-01-21T08:25:49.792Z,0.7
2023-01-21T08:26:57.253Z,0.6
2023-01-21T08:28:04.537Z,0.6
2023-01-21T08:29:11.448Z,0.7
2023-01-21T08:30:18.737Z,0.6
2023-01-21T08:31:26.959Z,0.8
2023-01-21T08:32:34.741Z,1
2023-01-21T08:33:43.836Z,0.8
2023-01-21T08:34:52.317Z,0.7
2023-01-21T08:36:00.987Z,0.8
2023-01-21T08:37:09.771Z,0.9
2023-01-21T08:38:18.090Z,0.8
2023-01-21T08:39:25.232Z,0.7
2023-01-21T08:40:32.871Z,0.8
2023-01-21T08:41:40.146Z,0.4
2023-01-21T08:42:47.387Z,0.6
2023-01-21T08:43:55.657Z,0.7
2023-01-21T08:45:03.472Z,0.8
2023-01-21T08:46:11.212Z,0.9
2023-01-21T08:47:21.862Z,0.6
2023-01-21T08:48:28.997Z,0.5
2023-01-21T08:49:37.661Z,0.5
2023-01-21T08:50:44.513Z,0.8
2023-01-21T08:51:52.132Z,0.9
2023-01-21T08:53:00.922Z,1
2023-01-21T08:54:08.270Z,0.8
2023-01-21T08:55:15.839Z,0.4
2023-01-21T08:56:23.086Z,0.6
2023-01-21T08:57:31.213Z,0.7
2023-01-21T08:58:38.635Z,0.8
2023-01-21T08:59:45.901Z,0.5
2023-01-21T09:00:53.902Z,0.7
2023-01-21T09:02:01.338Z,0.6
2023-01-21T09:03:09.169Z,0.7
2023-01-21T09:04:16.238Z,0.9
2023-01-21T09:05:23.920Z,0.8
2023-01-21T09:06:31.629Z,0.9
2023-01-21T09:07:38.516Z,1
2023-01-21T09:08:46.220Z,1
2023-01-21T09:09:53.464Z,1
2023-01-21T09:11:00.821Z,0.9
2023-01-21T09:12:08.354Z,1
2023-01-21T09:13:16.649Z,1
2023-01-21T09:14:24.638Z,0.8
2023-01-21T09:15:31.636Z,1
2023-01-21T09:16:44.004Z,0.9
2023-01-21T09:17:51.561Z,1
2023-01-21T09:18:58.473Z,1.1
2023-01-21T09:20:06.556Z,1
2023-01-21T09:21:14.860Z,1.2
2023-01-21T09:22:22.929Z,1.2
2023-01-21T09:23:30.138Z,1.3
2023-01-21T09:24:39.437Z,1.1
2023-01-21T09:25:47.448Z,1.2
2023-01-21T09:26:59.939Z,1.2
2023-01-21T09:28:09.262Z,0.9
2023-01-21T09:29:17.758Z,1
2023-01-21T09:30:25.429Z,0.9
2023-01-21T09:31:32.831Z,1
2023-01-21T09:32:40.653Z,0.9
2023-01-21T09:33:48.436Z,1
2023-01-21T09:34:56.588Z,1.1
2023-01-21T09:36:05.352Z,1.2
2023-01-21T09:37:13.181Z,1.1
2023-01-21T09:38:20.557Z,1
2023-01-21T09:39:28.732Z,0.9
2023-01-21T09:40:35.728Z,0.9
2023-01-21T09:41:42.811Z,0.9
2023-01-21T09:42:52.425Z,1
2023-01-21T09:43:59.564Z,1
2023-01-21T09:45:17.268Z,1.2
2023-01-21T09:46:25.311Z,1.3
2023-01-21T09:47:38.968Z,1.5
2023-01-21T09:48:48.684Z,1.4
2023-01-21T09:49:57.265Z,1.4
2023-01-21T09:51:08.181Z,1.4
2023-01-21T09:52:20.956Z,1.4
2023-01-21T09:53:31.549Z,1.3
2023-01-21T09:54:41.858Z,1.2
2023-01-21T09:55:50.152Z,1.3
2023-01-21T09:56:57.397Z,1.3
2023-01-21T09:58:10.387Z,1.4
2023-01-21T09:59:26.530Z,1.5
2023-01-21T10:00:44.121Z,1.3
2023-01-21T10:01:56.562Z,1.4
2023-01-21T10:03:04.491Z,1.2
2023-01-21T10:04:24.597Z,1.1
2023-01-21T10:05:42.744Z,1.3
2023-01-21T10:06:57.630Z,1.3
2023-01-21T10:08:07.286Z,1
2023-01-21T10:09:24.807Z,1.1
2023-01-21T10:10:31.782Z,1.4
2023-01-21T10:11:43.081Z,1.4
2023-01-21T10:12:53.505Z,1.4
2023-01-21T10:14:05.125Z,1.5
2023-01-21T10:15:18.251Z,1.4
2023-01-21T10:16:35.550Z,1.1
2023-01-21T10:17:48.166Z,1.1
2023-01-21T10:19:03.295Z,1
2023-01-21T10:20:10.434Z,1.2
2023-01-21T10:21:24.597Z,1.4
2023-01-21T10:22:36.855Z,1.5
2023-01-21T10:23:45.108Z,1.6
2023-01-21T10:24:57.970Z,1.4
2023-01-21T10:26:08.421Z,1.5
2023-01-21T10:27:16.334Z,1.2
2023-01-21T10:28:24.619Z,1.2
2023-01-21T10:29:31.842Z,1.4
2023-01-21T10:30:39.576Z,1.3
2023-01-21T10:31:46.720Z,1.3
2023-01-21T10:33:03.830Z,1.3
2023-01-21T10:34:12.078Z,1.5
2023-01-21T10:35:21.562Z,1.6
2023-01-21T10:36:29.297Z,1.5
2023-01-21T10:37:47.233Z,1.5
2023-01-21T10:38:57.368Z,1.3
2023-01-21T10:40:11.582Z,1.5
2023-01-21T10:41:20.299Z,1.4
2023-01-21T10:42:28.246Z,1.5
2023-01-21T10:43:46.995Z,1.6
2023-01-21T10:45:05.395Z,1.8
2023-01-21T10:46:20.711Z,1.7
2023-01-21T10:47:36.679Z,1.8
2023-01-21T10:48:55.434Z,1.9
2023-01-21T10:50:02.490Z,2
2023-01-21T10:51:16.031Z,1.8
2023-01-21T10:52:30.261Z,1.4
2023-01-21T10:53:45.221Z,1.5
2023-01-21T10:55:00.175Z,1.5
2023-01-21T10:56:18.300Z,1.7
2023-01-21T10:57:33.808Z,1.7
2023-01-21T10:58:52.041Z,1.8
2023-01-21T11:00:00.226Z,1.7
2023-01-21T11:01:08.612Z,1.1
2023-01-21T11:02:24.051Z,1.3
2023-01-21T11:03:31.670Z,1.5
2023-01-21T11:04:40.545Z,1.6
2023-01-21T11:05:50.039Z,1.4
2023-01-21T11:06:57.452Z,1.5
2023-01-21T11:08:04.544Z,1.7
2023-01-21T11:09:11.530Z,1.8
2023-01-21T11:10:19.589Z,1.8
2023-01-21T11:11:28.606Z,1.8
2023-01-21T11:12:37.306Z,1.7
2023-01-21T11:13:45.999Z,1.7
2023-01-21T11:14:53.565Z,1.7
2023-01-21T11:16:02.101Z,1.8
2023-01-21T11:17:09.642Z,1.9
2023-01-21T11:18:17.154Z,1.9
2023-01-21T11:19:32.849Z,1.4
2023-01-21T11:20:40.917Z,1.2
2023-01-21T11:21:49.207Z,1.3
2023-01-21T11:23:08.224Z,1.2
2023-01-21T11:24:25.378Z,1.2
2023-01-21T11:25:32.479Z,1.2
2023-01-21T11:26:39.525Z,1.4
2023-01-21T11:27:47.211Z,1.3
2023-01-21T11:28:54.202Z,1.4
2023-01-21T11:30:31.627Z,1.6
2023-01-21T11:31:29.054Z,1.6
2023-01-21T11:32:36.030Z,1.6
2023-01-21T11:33:43.257Z,1.8
2023-01-21T11:34:50.809Z,1.8
2023-01-21T11:36:00.997Z,2
2023-01-21T11:37:18.404Z,1.8
2023-01-21T11:38:26.273Z,1.7
2023-01-21T11:39:33.713Z,1.7
2023-01-21T11:40:43.739Z,1.7
2023-01-21T11:41:50.722Z,1.8
2023-01-21T11:42:58.067Z,1.9
2023-01-21T11:44:04.942Z,1.5
2023-01-21T11:45:17.418Z,1.5
2023-01-21T11:46:29.454Z,1.3
2023-01-21T11:47:39.438Z,1.4
2023-01-21T11:48:53.408Z,1.5
2023-01-21T11:50:11.363Z,1.4
2023-01-21T11:51:26.251Z,1.6
2023-01-21T11:52:34.349Z,1.8
2023-01-21T11:53:41.505Z,1.7
2023-01-21T11:54:48.925Z,1.7
2023-01-21T11:55:56.177Z,1.6
2023-01-21T11:57:03.285Z,1.6
2023-01-21T11:58:11.385Z,1.6
2023-01-21T11:59:20.453Z,1.6
2023-01-21T12:00:30.240Z,1.8
2023-01-21T12:01:38.393Z,1.7
2023-01-21T12:02:45.733Z,1.7
2023-01-21T12:03:56.177Z,1.9
2023-01-21T12:05:03.753Z,1.7
2023-01-21T12:06:24.515Z,1.4
2023-01-21T12:07:32.914Z,1.5
2023-01-21T12:08:40.201Z,1.7
2023-01-21T12:09:47.164Z,1.8
2023-01-21T12:10:55.598Z,1.8
2023-01-21T12:12:02.921Z,1.8
2023-01-21T12:13:20.284Z,1.6
2023-01-21T12:14:30.434Z,1.6
2023-01-21T12:15:37.487Z,1.6
2023-01-21T12:16:55.541Z,1.7
2023-01-21T12:18:06.245Z,1.7
2023-01-21T12:19:18.402Z,1.7
2023-01-21T12:20:34.242Z,1.8
2023-01-21T12:21:52.742Z,1.5
2023-01-21T12:23:10.502Z,1.8
2023-01-21T12:24:22.837Z,1.7
2023-01-21T12:25:37.745Z,1.6
2023-01-21T12:26:48.539Z,1.3
2023-01-21T12:28:02.384Z,1.4
2023-01-21T12:29:20.907Z,1.7
2023-01-21T12:30:30.699Z,1.5
2023-01-21T12:31:43.151Z,1.8
2023-01-21T12:32:57.356Z,1.7
2023-01-21T12:34:07.072Z,1.7
2023-01-21T12:35:20.066Z,1.7
2023-01-21T12:36:27.681Z,1.5
2023-01-21T12:37:34.736Z,1.5
2023-01-21T12:38:46.959Z,1.6
2023-01-21T12:39:57.849Z,1.7
2023-01-21T12:41:05.326Z,1.5
2023-01-21T12:42:13.636Z,1.8
2023-01-21T12:43:29.283Z,1.9
2023-01-21T12:44:45.541Z,2.1
2023-01-21T12:45:52.975Z,2.2
2023-01-21T12:47:00.189Z,2.3
2023-01-21T12:48:07.278Z,2.2
2023-01-21T12:49:17.513Z,2.2
2023-01-21T12:50:25.261Z,2.1
2023-01-21T12:51:42.801Z,2
2023-01-21T12:52:49.796Z,2
2023-01-21T12:54:02.985Z,2
2023-01-21T12:55:18.590Z,2.1
2023-01-21T12:56:28.127Z,2.1
2023-01-21T12:57:41.565Z,1.9
2023-01-21T12:58:54.451Z,2
2023-01-21T13:00:03.232Z,1.8
2023-01-21T13:01:15.380Z,1.7
2023-01-21T13:02:33.097Z,1.7
2023-01-21T13:03:43.033Z,1.7
2023-01-21T13:05:00.357Z,1.4
2023-01-21T13:06:18.546Z,1.6
2023-01-21T13:07:28.401Z,1.8
2023-01-21T13:08:40.542Z,1.7
2023-01-21T13:09:53.956Z,1.7
2023-01-21T13:11:09.252Z,2
2023-01-21T13:12:24.675Z,2.1
2023-01-21T13:13:31.649Z,2.2
2023-01-21T13:14:39.592Z,2.1
2023-01-21T13:15:46.797Z,2
2023-01-21T13:16:54.013Z,2
2023-01-21T13:18:01.821Z,2
2023-01-21T13:19:14.954Z,2
2023-01-21T13:20:22.005Z,2.1
2023-01-21T13:21:28.956Z,2.1
2023-01-21T13:22:42.006Z,2.1
2023-01-21T13:23:57.058Z,1.8
2023-01-21T13:25:04.994Z,2
2023-01-21T13:26:11.935Z,2.1
2023-01-21T13:27:18.921Z,2.2
2023-01-21T13:28:26.891Z,2.2
2023-01-21T13:29:38.965Z,2.3
2023-01-21T13:30:54.687Z,2.3
2023-01-21T13:32:01.724Z,2.3
2023-01-21T13:33:18.933Z,2.4
2023-01-21T13:34:31.177Z,2.3
2023-01-21T13:35:43.512Z,2.3
2023-01-21T13:36:56.642Z,2.3
2023-01-21T13:38:15.305Z,2.4
2023-01-21T13:39:28.550Z,2.4
2023-01-21T13:40:41.539Z,2.4
2023-01-21T13:41:54.816Z,2.4
2023-01-21T13:43:09.333Z,2.4
2023-01-21T13:44:25.294Z,2.4
2023-01-21T13:45:37.661Z,2.3
2023-01-21T13:46:55.006Z,2.4
2023-01-21T13:48:08.982Z,2.4
2023-01-21T13:49:25.458Z,2.4
2023-01-21T13:50:44.170Z,2.5
2023-01-21T13:51:54.067Z,2.5
2023-01-21T13:53:01.825Z,2.5
2023-01-21T13:54:19.830Z,2.5
2023-01-21T13:55:32.822Z,2.5
2023-01-21T13:56:45.745Z,2.4
2023-01-21T13:57:56.509Z,2.5
2023-01-21T13:59:14.709Z,2.5
2023-01-21T14:00:21.636Z,2.5
2023-01-21T14:01:36.960Z,2.5
2023-01-21T14:02:50.828Z,2.5
2023-01-21T14:04:03.420Z,2.5
2023-01-21T14:05:11.618Z,2.5
2023-01-21T14:06:24.719Z,2.6
2023-01-21T14:07:32.596Z,2.6
2023-01-21T14:08:40.200Z,2.6
2023-01-21T14:09:53.613Z,2.6
2023-01-21T14:11:03.609Z,2.5
2023-01-21T14:12:14.397Z,2.5
2023-01-21T14:13:24.262Z,2.5
2023-01-21T14:14:42.696Z,2.6
2023-01-21T14:15:53.774Z,2.5
2023-01-21T14:17:10.982Z,2.5
2023-01-21T14:18:24.608Z,2.5
2023-01-21T14:19:43.035Z,2.5
2023-01-21T14:20:58.995Z,2.5
2023-01-21T14:22:12.193Z,2.4
2023-01-21T14:23:26.286Z,2.4
2023-01-21T14:24:36.385Z,2.4
2023-01-21T14:25:53.629Z,2.5
2023-01-21T14:27:10.373Z,2.5
2023-01-21T14:28:28.005Z,2.5
2023-01-21T14:29:40.679Z,2.5
2023-01-21T14:30:58.141Z,2.6
2023-01-21T14:32:13.839Z,2.4
2023-01-21T14:33:24.074Z,2.5
2023-01-21T14:34:36.251Z,2.5
2023-01-21T14:35:46.949Z,2.4
2023-01-21T14:36:58.075Z,2.4
2023-01-21T14:38:10.601Z,2.4
2023-01-21T14:39:27.985Z,2.5
2023-01-21T14:40:38.650Z,2.5
2023-01-21T14:41:51.593Z,2.5
2023-01-21T14:43:04.306Z,2.4
2023-01-21T14:44:12.105Z,2.3
2023-01-21T14:45:19.967Z,2.4
2023-01-21T14:46:28.170Z,2.4
2023-01-21T14:47:36.113Z,2.5
2023-01-21T14:48:43.628Z,2.5
2023-01-21T14:49:50.777Z,2.5
2023-01-21T14:50:58.696Z,2.4
2023-01-21T14:52:10.729Z,2.4
2023-01-21T14:53:18.710Z,2.4
2023-01-21T14:54:28.336Z,2.4
2023-01-21T14:55:36.880Z,2.4
2023-01-21T14:56:44.529Z,2.4
2023-01-21T14:57:59.927Z,2.4
2023-01-21T14:59:08.089Z,2.5
2023-01-21T15:00:26.822Z,2.5
2023-01-21T15:01:37.019Z,2.6
2023-01-21T15:02:48.043Z,2.7
2023-01-21T15:03:58.803Z,2.7
2023-01-21T15:05:06.466Z,2.7
2023-01-21T15:06:15.609Z,2.7
2023-01-21T15:07:24.086Z,2.7
2023-01-21T15:08:31.610Z,2.8
2023-01-21T15:09:41.342Z,2.8
2023-01-21T15:10:48.645Z,2.8
2023-01-21T15:11:58.728Z,2.8
2023-01-21T15:13:06.196Z,2.8
2023-01-21T15:14:25.460Z,2.8
2023-01-21T15:15:35.048Z,2.8
2023-01-21T15:16:45.132Z,2.8
2023-01-21T15:17:52.577Z,2.7
2023-01-21T15:19:00.802Z,2.7
2023-01-21T15:20:11.293Z,2.7
2023-01-21T15:21:28.904Z,2.6
2023-01-21T15:22:36.768Z,2.6
2023-01-21T15:23:44.681Z,2.7
2023-01-21T15:24:54.074Z,2.6
2023-01-21T15:26:04.231Z,2.6
2023-01-21T15:27:11.699Z,2.6
2023-01-21T15:28:18.708Z,2.6
2023-01-21T15:29:29.929Z,2.6
2023-01-21T15:30:54.183Z,2.6
2023-01-21T15:31:49.269Z,2.6
2023-01-21T15:32:57.155Z,2.6
2023-01-21T15:34:05.565Z,2.6
2023-01-21T15:35:15.539Z,2.6
2023-01-21T15:36:34.236Z,2.6
2023-01-21T15:37:46.539Z,2.5
2023-01-21T15:38:57.035Z,2.5
2023-01-21T15:40:04.357Z,2.5
2023-01-21T15:41:21.580Z,2.5
2023-01-21T15:42:29.642Z,2.5
2023-01-21T15:43:39.836Z,2.6
2023-01-21T15:44:53.334Z,2.5
2023-01-21T15:46:13.592Z,2.5
2023-01-21T15:47:32.349Z,2.5
2023-01-21T15:48:47.820Z,2.5
2023-01-21T15:50:00.641Z,2.5
2023-01-21T15:51:20.310Z,2.5
2023-01-21T15:52:32.834Z,2.5
2023-01-21T15:53:45.024Z,2.5
2023-01-21T15:55:02.485Z,2.5
2023-01-21T15:56:19.776Z,2.5
2023-01-21T15:57:33.939Z,2.5
2023-01-21T15:58:46.555Z,2.5